KMTJ/MTJ METAR and TAF weather

Enter ICAO airport designator
Station Type Date Time Source
KMTJ METAR 2019/02/21 15:53 UTC NOAA

KMTJ 211553Z AUTO 00000KT 10SM BKN085 M03/M08 A2967 RMK AO2 SLP057 T10331083


Station Type Date Time Source
KMTJ Decoded METAR 2019/02/21 15:53 UTC NOAA

MONTROSE REGIONAL AIRPORT, CO, United States (KMTJ) 38-30N 107-54W 1750M
Feb 21, 2019 - 10:53 AM EST / 2019.02.21 1553 UTC
Wind: Calm:0
Visibility: 10 mile(s):0
Sky conditions: mostly cloudy
Temperature: 26.1 F (-3.3 C)
Dew Point: 17.1 F (-8.3 C)
Relative Humidity: 68%
Pressure (altimeter): 29.67 in. Hg (1004 hPa)
ob: KMTJ 211553Z AUTO 00000KT 10SM BKN085 M03/M08 A2967 RMK AO2 SLP057 T10331083
cycle: 16

Station Type Date Time Source
KMTJ TAF 2019/02/21 12:28 UTC NOAA

TAF KMTJ 211125Z 2112/2212 30003KT P6SM OVC060
FM211600 24005KT P6SM VCSH OVC040
FM220200 24005KT 2SM -SN BR OVC020
FM220700 09005KT P6SM SCT025 OVC035


Example: see airport list